Ayane Maru — JD3352 — position and weather

sailwx.info

Track history (hours):
 
Tides and Currents Weather Stations Pressure Air Temp Water Temp Dewpoint Dewpoint Depression Visibility Wind Speed Wind Dir Waves Ship Positions

Ayane Maru

Last reported at 2017-Nov-17 07:33 UTC. Time now 2017-Nov-17 21:17 UTC.
Position N 34°07' E 135°03'.

Length 85 m; draft 3.4 m.

Type: Cargo ship. MMSI: 431003481.

Date/timePositionNaut miles runAvg speedWind from/ knotsBaromVisibWave heightAir tempDewpointWater temp
2017-Nov-17 07:33N 34°07' E 135°03'113.5
2017-Nov-17 07:30N 34°07' E 135°03'1813.3
2017-Nov-17 06:08N 34°25' E 135°10'214.3
2017-Nov-17 06:00N 34°26' E 135°11'713.7
2017-Nov-17 05:30N 34°31' E 135°17'713.2
2017-Nov-17 05:00N 34°36' E 135°22'2 0.6
2017-Nov-17 01:58N 34°37' E 135°24'0 0.0
2017-Nov-17 01:27N 34°37' E 135°24'0 0.0
2017-Nov-17 00:35N 34°37' E 135°24'0 0.0
2017-Nov-17 00:30N 34°37' E 135°24'0 0.0
2017-Nov-17 00:00N 34°37' E 135°24'0 0.0
2017-Nov-16 23:30N 34°37' E 135°24'0 0.0
2017-Nov-16 23:00N 34°37' E 135°24'0 0.0
2017-Nov-16 22:30N 34°37' E 135°24'0 0.0
2017-Nov-16 22:00N 34°37' E 135°24'0 0.0
2017-Nov-16 21:30N 34°37' E 135°24'3 5.3
2017-Nov-16 21:00N 34°36' E 135°21'2 3.8
2017-Nov-16 20:30N 34°35' E 135°19'0 0.0
2017-Nov-16 20:00N 34°35' E 135°19'0 0.0
2017-Nov-16 19:25N 34°35' E 135°19'0 0.1
2017-Nov-16 19:00N 34°35' E 135°19'0 0.0
2017-Nov-16 18:30N 34°35' E 135°19'0 0.1
2017-Nov-16 18:00N 34°35' E 135°19'0 0.0
2017-Nov-16 16:40N 34°35' E 135°19'0 0.4
2017-Nov-16 16:25N 34°35' E 135°19'512.8
2017-Nov-16 16:00N 34°35' E 135°12'714.4
2017-Nov-16 15:30N 34°35' E 135°04'34 0.9
2017-Nov-15 02:19N 34°04' E 134°48'44 0.9
2017-Nov-13 01:58N 34°37' E 135°24'0 0.0
2017-Nov-13 01:00N 34°37' E 135°24'0 0.0
2017-Nov-13 00:30N 34°37' E 135°24'0 0.0
2017-Nov-13 00:00N 34°37' E 135°24'0 0.0
2017-Nov-12 23:30N 34°37' E 135°24'0 0.0
2017-Nov-12 23:00N 34°37' E 135°24'0 0.0
2017-Nov-12 22:30N 34°37' E 135°24'0 0.0
2017-Nov-12 22:00N 34°37' E 135°24'0 0.5
2017-Nov-12 21:28N 34°37' E 135°24'4 8.5
2017-Nov-12 20:58N 34°35' E 135°19'1 1.4
2017-Nov-12 20:27N 34°35' E 135°18'0 0.0
2017-Nov-12 20:00N 34°35' E 135°18'0 0.1
2017-Nov-12 19:29N 34°35' E 135°18'0 0.0
2017-Nov-12 19:00N 34°35' E 135°18'0 0.2
2017-Nov-12 18:28N 34°35' E 135°18'4 9.5
2017-Nov-12 18:00N 34°35' E 135°13'713.3
2017-Nov-12 17:30N 34°35' E 135°05'612.2
2017-Nov-12 17:00N 34°37' E 134°58'29 0.6
2017-Nov-10 17:46N 34°09' E 134°45'513.6
2017-Nov-10 17:23N 34°05' E 134°49'713.9
2017-Nov-10 16:51N 33°60' E 134°54'  
Track history (hours):
 
Tides and Currents Weather Stations Pressure Air Temp Water Temp Dewpoint Dewpoint Depression Visibility Wind Speed Wind Dir Waves Ship Positions

Ayane Maru

Last reported at 2017-Nov-17 07:33 UTC. Time now 2017-Nov-17 21:17 UTC.
Position N 34°07' E 135°03'.

Length 85 m; draft 3.4 m.

Type: Cargo ship. MMSI: 431003481.

Date/timePositionNaut miles runAvg speedWind from/ knotsBaromVisibWave heightAir tempDewpointWater temp
2017-Nov-17 07:33N 34°07' E 135°03'113.5
2017-Nov-17 07:30N 34°07' E 135°03'1813.3
2017-Nov-17 06:08N 34°25' E 135°10'214.3
2017-Nov-17 06:00N 34°26' E 135°11'713.7
2017-Nov-17 05:30N 34°31' E 135°17'713.2
2017-Nov-17 05:00N 34°36' E 135°22'2 0.6
2017-Nov-17 01:58N 34°37' E 135°24'0 0.0
2017-Nov-17 01:27N 34°37' E 135°24'0 0.0
2017-Nov-17 00:35N 34°37' E 135°24'0 0.0
2017-Nov-17 00:30N 34°37' E 135°24'0 0.0
2017-Nov-17 00:00N 34°37' E 135°24'0 0.0
2017-Nov-16 23:30N 34°37' E 135°24'0 0.0
2017-Nov-16 23:00N 34°37' E 135°24'0 0.0
2017-Nov-16 22:30N 34°37' E 135°24'0 0.0
2017-Nov-16 22:00N 34°37' E 135°24'0 0.0
2017-Nov-16 21:30N 34°37' E 135°24'3 5.3
2017-Nov-16 21:00N 34°36' E 135°21'2 3.8
2017-Nov-16 20:30N 34°35' E 135°19'0 0.0
2017-Nov-16 20:00N 34°35' E 135°19'0 0.0
2017-Nov-16 19:25N 34°35' E 135°19'0 0.1
2017-Nov-16 19:00N 34°35' E 135°19'0 0.0
2017-Nov-16 18:30N 34°35' E 135°19'0 0.1
2017-Nov-16 18:00N 34°35' E 135°19'0 0.0
2017-Nov-16 16:40N 34°35' E 135°19'0 0.4
2017-Nov-16 16:25N 34°35' E 135°19'512.8
2017-Nov-16 16:00N 34°35' E 135°12'714.4
2017-Nov-16 15:30N 34°35' E 135°04'34 0.9
2017-Nov-15 02:19N 34°04' E 134°48'44 0.9
2017-Nov-13 01:58N 34°37' E 135°24'0 0.0
2017-Nov-13 01:00N 34°37' E 135°24'0 0.0
2017-Nov-13 00:30N 34°37' E 135°24'0 0.0
2017-Nov-13 00:00N 34°37' E 135°24'0 0.0
2017-Nov-12 23:30N 34°37' E 135°24'0 0.0
2017-Nov-12 23:00N 34°37' E 135°24'0 0.0
2017-Nov-12 22:30N 34°37' E 135°24'0 0.0
2017-Nov-12 22:00N 34°37' E 135°24'0 0.5
2017-Nov-12 21:28N 34°37' E 135°24'4 8.5
2017-Nov-12 20:58N 34°35' E 135°19'1 1.4
2017-Nov-12 20:27N 34°35' E 135°18'0 0.0
2017-Nov-12 20:00N 34°35' E 135°18'0 0.1
2017-Nov-12 19:29N 34°35' E 135°18'0 0.0
2017-Nov-12 19:00N 34°35' E 135°18'0 0.2
2017-Nov-12 18:28N 34°35' E 135°18'4 9.5
2017-Nov-12 18:00N 34°35' E 135°13'713.3
2017-Nov-12 17:30N 34°35' E 135°05'612.2
2017-Nov-12 17:00N 34°37' E 134°58'29 0.6
2017-Nov-10 17:46N 34°09' E 134°45'513.6
2017-Nov-10 17:23N 34°05' E 134°49'713.9
2017-Nov-10 16:51N 33°60' E 134°54'  

Dump ship's entire track history